createdAt,value
2019-05-03T00:02:28.998Z,12.48
2019-05-03T00:05:26.466Z,12.66
2019-05-03T00:08:07.545Z,12.81
2019-05-03T00:10:39.361Z,12.75
2019-05-03T00:13:12.532Z,12.85
2019-05-03T00:16:05.961Z,12.84
2019-05-03T00:18:37.495Z,12.91
2019-05-03T00:21:08.888Z,12.88
2019-05-03T00:23:41.769Z,12.89
2019-05-03T00:26:13.259Z,12.84
2019-05-03T00:28:44.790Z,12.71
2019-05-03T00:31:16.090Z,12.66
2019-05-03T00:33:51.593Z,12.56
2019-05-03T00:36:32.816Z,12.49
2019-05-03T00:39:17.065Z,12.44
2019-05-03T00:41:49.735Z,12.39
2019-05-03T00:44:22.235Z,12.38
2019-05-03T00:46:53.548Z,12.27
2019-05-03T00:49:24.894Z,12.24
2019-05-03T00:51:56.185Z,12.13
2019-05-03T00:54:27.477Z,12.07
2019-05-03T00:56:58.888Z,12.07
2019-05-03T00:59:30.157Z,12.07
2019-05-03T01:02:02.731Z,12.01
2019-05-03T01:04:34.151Z,11.98
2019-05-03T01:07:05.591Z,11.97
2019-05-03T01:09:37.194Z,11.93
2019-05-03T01:12:08.619Z,11.93
2019-05-03T01:14:42.146Z,11.87
2019-05-03T01:17:13.633Z,11.81
2019-05-03T01:19:44.936Z,11.79
2019-05-03T01:22:16.238Z,11.88
2019-05-03T01:24:47.651Z,11.88
2019-05-03T01:27:19.120Z,11.77
2019-05-03T01:29:51.969Z,11.71
2019-05-03T01:32:23.445Z,11.82
2019-05-03T01:34:54.892Z,11.72
2019-05-03T01:37:26.233Z,11.66
2019-05-03T01:39:57.499Z,11.57
2019-05-03T01:42:29.644Z,11.61
2019-05-03T01:45:01.832Z,11.56
2019-05-03T01:47:41.954Z,11.56
2019-05-03T01:50:22.850Z,11.55
2019-05-03T01:52:58.179Z,11.56
2019-05-03T01:55:48.245Z,11.53
2019-05-03T01:58:21.689Z,11.48
2019-05-03T02:01:02.826Z,11.46
2019-05-03T02:03:46.792Z,11.46
2019-05-03T02:06:18.069Z,11.44
2019-05-03T02:08:49.392Z,11.38
2019-05-03T02:11:22.195Z,11.37
2019-05-03T02:13:53.571Z,11.31
2019-05-03T02:16:24.958Z,11.31
2019-05-03T02:18:56.333Z,11.22
2019-05-03T02:21:27.670Z,11.22
2019-05-03T02:23:59.018Z,11.17
2019-05-03T02:26:31.810Z,11.21
2019-05-03T02:29:03.273Z,11.21
2019-05-03T02:31:34.741Z,11.11
2019-05-03T02:34:06.089Z,11.11
2019-05-03T02:36:42.858Z,11.01
2019-05-03T02:39:15.751Z,10.98
2019-05-03T02:41:49.485Z,10.92
2019-05-03T02:44:22.518Z,10.87
2019-05-03T02:47:21.044Z,10.87
2019-05-03T02:49:56.905Z,10.86
2019-05-03T02:52:37.976Z,10.86
2019-05-03T02:55:11.153Z,10.77
2019-05-03T02:57:46.678Z,10.69
2019-05-03T03:00:20.013Z,10.67
2019-05-03T03:02:51.561Z,10.71
2019-05-03T03:05:25.294Z,10.71
2019-05-03T03:07:57.077Z,10.70
2019-05-03T03:10:28.628Z,10.60
2019-05-03T03:13:02.506Z,10.52
2019-05-03T03:15:36.817Z,10.43
2019-05-03T03:18:09.822Z,10.47
2019-05-03T03:20:44.983Z,10.47
2019-05-03T03:23:18.870Z,10.45
2019-05-03T03:25:55.652Z,10.42
2019-05-03T03:28:27.863Z,10.38
2019-05-03T03:31:30.854Z,10.34
2019-05-03T03:34:08.100Z,10.34
2019-05-03T03:36:59.355Z,10.27
2019-05-03T03:39:21.553Z,10.30
2019-05-03T03:41:55.796Z,10.22
2019-05-03T03:44:28.689Z,10.22
2019-05-03T03:47:05.958Z,10.23
2019-05-03T03:49:40.248Z,10.20
2019-05-03T03:52:16.027Z,10.10
2019-05-03T03:54:49.991Z,10.10
2019-05-03T03:57:26.717Z,10.05
2019-05-03T03:59:58.275Z,10.06
2019-05-03T04:02:29.696Z,10.01
2019-05-03T04:05:01.124Z,10.01
2019-05-03T04:07:36.283Z,9.99
2019-05-03T04:10:09.876Z,10.05
2019-05-03T04:12:45.503Z,10.07
2019-05-03T04:15:36.704Z,10.06
2019-05-03T04:18:26.871Z,10.06
2019-05-03T04:20:58.159Z,10.12
2019-05-03T04:23:32.347Z,10.04
2019-05-03T04:26:06.803Z,10.01
2019-05-03T04:28:38.579Z,10.03
2019-05-03T04:31:09.980Z,9.99
2019-05-03T04:33:41.377Z,10.11
2019-05-03T04:36:12.723Z,10.05
2019-05-03T04:38:45.385Z,10.05
2019-05-03T04:41:16.917Z,10.01
2019-05-03T04:43:48.305Z,10.01
2019-05-03T04:46:22.412Z,10.01
2019-05-03T04:48:56.149Z,10.04
2019-05-03T04:51:35.018Z,10.05
2019-05-03T04:54:25.637Z,10.09
2019-05-03T04:56:58.766Z,10.08
2019-05-03T04:59:30.161Z,10.06
2019-05-03T05:02:01.396Z,10.06
2019-05-03T05:04:35.745Z,10.10
2019-05-03T05:07:08.665Z,10.14
2019-05-03T05:09:39.944Z,10.08
2019-05-03T05:12:11.343Z,10.10
2019-05-03T05:14:45.497Z,10.11
2019-05-03T05:17:19.493Z,10.17
2019-05-03T05:20:09.698Z,10.17
2019-05-03T05:22:42.130Z,10.17
2019-05-03T05:25:16.831Z,10.20
2019-05-03T05:28:05.633Z,10.26
2019-05-03T05:30:37.129Z,10.26
2019-05-03T05:33:20.579Z,10.30
2019-05-03T05:35:54.517Z,10.33
2019-05-03T05:38:27.995Z,10.33
2019-05-03T05:40:59.350Z,10.34
2019-05-03T05:43:31.104Z,10.34
2019-05-03T05:46:02.467Z,10.31
2019-05-03T05:48:39.045Z,10.33
2019-05-03T05:51:13.363Z,10.33
2019-05-03T05:53:44.769Z,10.35
2019-05-03T05:56:28.462Z,10.35
2019-05-03T05:59:10.776Z,10.33
2019-05-03T06:02:04.878Z,10.34
2019-05-03T06:04:38.690Z,10.33
2019-05-03T06:07:27.801Z,10.41
2019-05-03T06:10:09.589Z,10.41
2019-05-03T06:12:56.608Z,10.35
2019-05-03T06:15:46.276Z,10.41
2019-05-03T06:18:22.281Z,10.40
2019-05-03T06:21:07.408Z,10.52
2019-05-03T06:23:45.049Z,10.52
2019-05-03T06:26:34.723Z,10.52
2019-05-03T06:29:06.756Z,10.51
2019-05-03T06:31:57.635Z,10.54
2019-05-03T06:34:29.010Z,10.53
2019-05-03T06:37:04.508Z,10.56
2019-05-03T06:39:36.635Z,10.56
2019-05-03T06:42:19.001Z,10.56
2019-05-03T06:44:48.083Z,10.58
2019-05-03T06:47:19.667Z,10.56
2019-05-03T06:49:55.119Z,10.57
2019-05-03T06:52:29.325Z,10.57
2019-05-03T06:55:10.627Z,10.62
2019-05-03T06:57:45.569Z,10.62
2019-05-03T07:00:35.075Z,10.62
2019-05-03T07:03:50.793Z,10.65
2019-05-03T07:07:01.402Z,10.63
2019-05-03T07:09:47.335Z,10.64
2019-05-03T07:12:18.847Z,10.64
2019-05-03T07:15:00.733Z,10.66
2019-05-03T07:17:32.040Z,10.69
2019-05-03T07:20:04.678Z,10.69
2019-05-03T07:22:37.722Z,10.71
2019-05-03T07:25:09.299Z,10.71
2019-05-03T07:27:55.723Z,10.73
2019-05-03T07:30:30.720Z,10.74
2019-05-03T07:33:15.019Z,10.74
2019-05-03T07:35:47.679Z,10.83
2019-05-03T07:38:19.222Z,10.98
2019-05-03T07:40:50.594Z,10.98
2019-05-03T07:43:22.033Z,11.08
2019-05-03T07:45:55.098Z,11.08
2019-05-03T07:48:26.446Z,11.12
2019-05-03T07:50:57.741Z,11.19
2019-05-03T07:53:29.064Z,11.23
2019-05-03T07:56:25.514Z,11.23
2019-05-03T07:59:02.945Z,11.25
2019-05-03T08:01:39.058Z,11.14
2019-05-03T08:04:10.323Z,11.14
2019-05-03T08:06:41.763Z,11.21
2019-05-03T08:09:15.159Z,11.26
2019-05-03T08:11:46.133Z,11.28
2019-05-03T08:14:18.310Z,11.26
2019-05-03T08:16:49.726Z,11.26
2019-05-03T08:19:23.591Z,11.40
2019-05-03T08:21:56.497Z,11.66
2019-05-03T08:24:27.080Z,11.71
2019-05-03T08:26:58.449Z,11.71
2019-05-03T08:29:29.877Z,11.83
2019-05-03T08:32:15.401Z,11.12
2019-05-03T08:35:04.796Z,11.98
2019-05-03T08:37:51.347Z,11.93
2019-05-03T08:40:24.597Z,11.93
2019-05-03T08:42:56.092Z,11.89
2019-05-03T08:45:27.566Z,11.87
2019-05-03T08:47:58.983Z,11.81
2019-05-03T08:50:30.320Z,11.79
2019-05-03T08:53:01.655Z,11.74
2019-05-03T08:55:35.040Z,11.76
2019-05-03T08:58:06.015Z,11.83
2019-05-03T09:00:39.555Z,11.90
2019-05-03T09:03:10.984Z,12.00
2019-05-03T09:05:45.365Z,12.00
2019-05-03T09:08:15.794Z,11.99
2019-05-03T09:11:00.528Z,11.99
2019-05-03T09:14:04.450Z,12.12
2019-05-03T09:16:35.914Z,12.14
2019-05-03T09:19:07.739Z,12.17
2019-05-03T09:21:39.232Z,12.24
2019-05-03T09:24:12.281Z,12.33
2019-05-03T09:26:44.923Z,12.35
2019-05-03T09:29:16.569Z,12.35
2019-05-03T09:31:48.045Z,12.39
2019-05-03T09:34:20.946Z,12.31
2019-05-03T09:36:52.533Z,12.32
2019-05-03T09:39:24.556Z,12.41
2019-05-03T09:41:59.423Z,12.53
2019-05-03T09:44:30.806Z,12.66
2019-05-03T09:47:02.166Z,12.80
2019-05-03T09:49:34.888Z,12.92
2019-05-03T09:52:18.301Z,12.89
2019-05-03T09:55:14.538Z,12.98
2019-05-03T09:57:46.821Z,12.94
2019-05-03T10:00:19.326Z,12.91
2019-05-03T10:02:54.693Z,12.91
2019-05-03T10:05:28.267Z,12.93
2019-05-03T10:08:18.347Z,13.00
2019-05-03T10:11:15.388Z,13.12
2019-05-03T10:13:49.210Z,13.19
2019-05-03T10:16:24.948Z,13.23
2019-05-03T10:19:00.957Z,13.42
2019-05-03T10:21:35.631Z,13.44
2019-05-03T10:24:07.467Z,13.56
2019-05-03T10:26:45.592Z,13.65
2019-05-03T10:29:17.376Z,13.75
2019-05-03T10:32:03.173Z,13.86
2019-05-03T10:34:38.015Z,14.08
2019-05-03T10:37:11.913Z,14.40
2019-05-03T10:39:46.300Z,14.69
2019-05-03T10:42:24.515Z,15.09
2019-05-03T10:44:57.711Z,15.31
2019-05-03T10:47:40.431Z,15.38
2019-05-03T10:50:15.461Z,15.55
2019-05-03T10:52:51.409Z,15.58
2019-05-03T10:55:24.908Z,15.99
2019-05-03T10:58:16.976Z,16.20
2019-05-03T11:00:53.356Z,16.04
2019-05-03T11:03:23.968Z,15.61
2019-05-03T11:05:55.297Z,15.52
2019-05-03T11:08:28.406Z,15.57
2019-05-03T11:10:59.765Z,15.58
2019-05-03T11:13:31.123Z,15.42
2019-05-03T11:16:02.548Z,15.46
2019-05-03T11:18:34.583Z,15.40
2019-05-03T11:21:05.974Z,15.45
2019-05-03T11:23:37.617Z,15.53
2019-05-03T11:26:08.948Z,15.42
2019-05-03T11:28:40.613Z,15.17
2019-05-03T11:31:29.588Z,14.92
2019-05-03T11:34:02.471Z,14.67
2019-05-03T11:36:43.006Z,14.51
2019-05-03T11:39:14.579Z,14.21
2019-05-03T11:41:49.503Z,14.17
2019-05-03T11:44:39.048Z,13.95
2019-05-03T11:47:10.365Z,13.87
2019-05-03T11:49:41.731Z,13.70
2019-05-03T11:52:15.807Z,13.63
2019-05-03T11:54:49.374Z,13.60
2019-05-03T11:57:26.240Z,13.59
2019-05-03T11:59:59.770Z,13.60
2019-05-03T12:03:20.676Z,13.71
2019-05-03T12:05:58.635Z,13.64
2019-05-03T12:08:34.681Z,13.66
2019-05-03T12:11:06.169Z,13.67
2019-05-03T12:13:37.489Z,13.65
2019-05-03T12:16:17.305Z,13.42
2019-05-03T12:18:50.258Z,13.30
2019-05-03T12:21:18.114Z,13.27
2019-05-03T12:23:48.561Z,13.28
2019-05-03T12:26:20.808Z,13.32
2019-05-03T12:28:52.630Z,13.52
2019-05-03T12:31:36.280Z,13.59
2019-05-03T12:33:57.014Z,13.74
2019-05-03T12:36:28.446Z,13.79
2019-05-03T12:39:01.463Z,13.66
2019-05-03T12:41:32.807Z,13.72
2019-05-03T12:44:04.646Z,13.79
2019-05-03T12:46:36.426Z,13.97
2019-05-03T12:49:08.098Z,14.11
2019-05-03T12:51:39.399Z,14.03
2019-05-03T12:54:12.424Z,14.03
2019-05-03T12:56:45.371Z,14.20
2019-05-03T12:59:26.692Z,14.38
2019-05-03T13:02:06.357Z,14.60
2019-05-03T13:04:38.378Z,15.00
2019-05-03T13:07:25.429Z,15.14
2019-05-03T13:09:56.784Z,15.31
2019-05-03T13:12:30.847Z,15.39
2019-05-03T13:15:02.417Z,15.54
2019-05-03T13:17:37.337Z,15.77
2019-05-03T13:20:11.787Z,16.17
2019-05-03T13:22:45.642Z,16.36
2019-05-03T13:25:18.343Z,16.57
2019-05-03T13:27:49.753Z,16.68
2019-05-03T13:30:24.960Z,16.74
2019-05-03T13:32:57.681Z,16.56
2019-05-03T13:35:29.015Z,16.31
2019-05-03T13:38:00.577Z,16.21
2019-05-03T13:40:31.925Z,16.01
2019-05-03T13:43:06.325Z,15.91
2019-05-03T13:45:36.335Z,15.69
2019-05-03T13:48:09.368Z,15.54
2019-05-03T13:50:44.647Z,15.48
2019-05-03T13:53:16.219Z,15.34
2019-05-03T13:55:47.511Z,15.10
2019-05-03T13:58:18.774Z,14.82
2019-05-03T14:00:54.985Z,14.63
2019-05-03T14:03:28.104Z,14.54
2019-05-03T14:05:59.475Z,14.45
2019-05-03T14:08:30.866Z,14.24
2019-05-03T14:11:02.176Z,14.08
2019-05-03T14:13:35.340Z,13.94
2019-05-03T14:16:06.652Z,13.83
2019-05-03T14:18:41.198Z,13.74
2019-05-03T14:21:29.058Z,13.62
2019-05-03T14:24:09.866Z,13.58
2019-05-03T14:26:44.789Z,13.71
2019-05-03T14:29:16.307Z,13.71
2019-05-03T14:31:47.595Z,13.73
2019-05-03T14:34:20.559Z,13.87
2019-05-03T14:36:51.953Z,13.92
2019-05-03T14:39:25.358Z,13.98
2019-05-03T14:42:00.496Z,14.14
2019-05-03T14:44:31.864Z,14.27
2019-05-03T14:47:05.614Z,14.34
2019-05-03T14:49:36.316Z,14.37
2019-05-03T14:52:09.363Z,14.28
2019-05-03T14:54:42.455Z,14.31
2019-05-03T14:57:35.144Z,14.35
2019-05-03T15:00:17.528Z,14.39
2019-05-03T15:03:04.742Z,14.52
2019-05-03T15:05:36.398Z,14.68
2019-05-03T15:08:10.748Z,14.77
2019-05-03T15:10:42.180Z,14.75
2019-05-03T15:13:15.764Z,14.74
2019-05-03T15:15:46.497Z,14.85
2019-05-03T15:18:22.809Z,14.84
2019-05-03T15:20:54.946Z,14.96
2019-05-03T15:23:38.813Z,15.00
2019-05-03T15:26:46.120Z,14.98
2019-05-03T15:29:17.467Z,14.95
2019-05-03T15:31:48.777Z,14.99
2019-05-03T15:34:21.793Z,15.06
2019-05-03T15:36:54.684Z,15.12
2019-05-03T15:39:26.118Z,15.17
2019-05-03T15:41:59.215Z,15.18
2019-05-03T15:44:50.733Z,15.23
2019-05-03T15:47:32.152Z,15.26
2019-05-03T15:50:04.879Z,15.08
2019-05-03T15:52:36.627Z,15.00
2019-05-03T15:55:08.120Z,14.84
2019-05-03T15:57:39.501Z,14.68
2019-05-03T16:00:15.111Z,14.60
2019-05-03T16:02:48.273Z,14.63
2019-05-03T16:05:19.551Z,14.66
2019-05-03T16:07:50.850Z,14.70
2019-05-03T16:10:22.175Z,14.62
2019-05-03T16:12:54.510Z,14.59
2019-05-03T16:15:26.027Z,14.56
2019-05-03T16:17:57.367Z,14.48
2019-05-03T16:20:28.704Z,14.39
2019-05-03T16:22:59.974Z,14.25
2019-05-03T16:25:31.499Z,13.96
2019-05-03T16:28:10.674Z,13.65
2019-05-03T16:30:46.475Z,13.30
2019-05-03T16:33:26.941Z,13.09
2019-05-03T16:36:01.913Z,12.93
2019-05-03T16:38:35.354Z,12.77
2019-05-03T16:41:06.926Z,12.63
2019-05-03T16:43:38.253Z,12.69
2019-05-03T16:46:09.683Z,12.68
2019-05-03T16:48:44.631Z,12.61
2019-05-03T16:51:17.332Z,12.56
2019-05-03T16:53:50.314Z,12.58
2019-05-03T16:56:22.073Z,12.58
2019-05-03T16:58:55.025Z,12.51
2019-05-03T17:01:26.498Z,12.49
2019-05-03T17:04:16.959Z,12.49
2019-05-03T17:07:15.314Z,12.25
2019-05-03T17:09:50.630Z,12.25
2019-05-03T17:12:25.695Z,12.37
2019-05-03T17:14:58.817Z,12.30
2019-05-03T17:17:30.183Z,11.99
2019-05-03T17:20:02.683Z,11.83
2019-05-03T17:22:34.569Z,11.62
2019-05-03T17:25:07.830Z,11.58
2019-05-03T17:27:39.403Z,11.52
2019-05-03T17:30:10.950Z,11.37
2019-05-03T17:32:44.451Z,11.06
2019-05-03T17:35:16.151Z,11.11
2019-05-03T17:37:47.460Z,11.06
2019-05-03T17:40:34.743Z,11.00
2019-05-03T17:43:28.761Z,11.00
2019-05-03T17:46:00.459Z,11.02
2019-05-03T17:48:31.977Z,11.05
2019-05-03T17:51:05.439Z,11.05
2019-05-03T17:53:56.229Z,11.08
2019-05-03T17:56:58.617Z,11.08
2019-05-03T17:59:40.087Z,11.12
2019-05-03T18:02:47.942Z,11.08
2019-05-03T18:05:50.183Z,11.11
2019-05-03T18:08:35.514Z,11.11
2019-05-03T18:11:56.416Z,11.11
2019-05-03T18:14:27.807Z,11.10
2019-05-03T18:16:59.363Z,11.10
2019-05-03T18:19:30.660Z,11.12
2019-05-03T18:22:01.992Z,11.12
2019-05-03T18:24:45.553Z,11.10
2019-05-03T18:27:52.642Z,11.05
2019-05-03T18:30:23.922Z,11.04
2019-05-03T18:33:31.078Z,11.04
2019-05-03T18:36:02.479Z,10.97
2019-05-03T18:38:39.267Z,10.91
2019-05-03T18:41:12.209Z,10.91
2019-05-03T18:44:01.365Z,10.86
2019-05-03T18:46:35.992Z,10.79
2019-05-03T18:49:07.361Z,10.75
2019-05-03T18:51:38.846Z,10.71
2019-05-03T18:54:10.222Z,10.60
2019-05-03T18:56:43.383Z,10.60
2019-05-03T18:59:14.740Z,10.58
2019-05-03T19:01:52.336Z,10.53
2019-05-03T19:04:45.604Z,10.43
2019-05-03T19:07:34.804Z,10.36
2019-05-03T19:10:26.930Z,10.32
2019-05-03T19:13:11.902Z,10.32
2019-05-03T19:15:43.629Z,10.28
2019-05-03T19:18:32.028Z,10.21
2019-05-03T19:21:04.642Z,10.21
2019-05-03T19:23:36.107Z,10.14
2019-05-03T19:26:14.713Z,10.14
2019-05-03T19:28:46.054Z,10.10
2019-05-03T19:31:17.411Z,10.11
2019-05-03T19:33:48.786Z,10.09
2019-05-03T19:36:20.224Z,10.08
2019-05-03T19:38:51.665Z,10.08
2019-05-03T19:41:24.994Z,10.09
2019-05-03T19:43:56.174Z,10.09
2019-05-03T19:46:27.473Z,10.05
2019-05-03T19:48:58.769Z,10.08
2019-05-03T19:51:30.045Z,10.09
2019-05-03T19:54:01.776Z,10.09
2019-05-03T19:56:33.192Z,10.08
2019-05-03T19:59:09.113Z,10.07
2019-05-03T20:01:58.825Z,10.07
2019-05-03T20:04:57.625Z,10.08
2019-05-03T20:07:39.785Z,10.05
2019-05-03T20:10:14.685Z,10.05
2019-05-03T20:12:46.302Z,10.06
2019-05-03T20:15:17.631Z,10.08
2019-05-03T20:17:59.317Z,10.05
2019-05-03T20:20:22.439Z,10.05
2019-05-03T20:22:54.923Z,10.06
2019-05-03T20:25:26.202Z,10.04
2019-05-03T20:27:57.610Z,10.03
2019-05-03T20:30:28.933Z,10.03
2019-05-03T20:33:00.237Z,10.03
2019-05-03T20:35:31.591Z,10.02
2019-05-03T20:38:04.466Z,9.95
2019-05-03T20:40:35.838Z,9.99
2019-05-03T20:43:14.451Z,9.96
2019-05-03T20:46:05.450Z,9.91
2019-05-03T20:48:37.865Z,9.87
2019-05-03T20:51:20.674Z,9.82
2019-05-03T20:54:06.348Z,9.82
2019-05-03T20:56:37.705Z,9.76
2019-05-03T20:59:09.131Z,9.70
2019-05-03T21:01:40.497Z,9.66
2019-05-03T21:04:11.809Z,9.59
2019-05-03T21:06:45.213Z,9.57
2019-05-03T21:09:17.718Z,9.57
2019-05-03T21:11:49.015Z,9.52
2019-05-03T21:14:20.363Z,9.49
2019-05-03T21:17:08.609Z,9.49
2019-05-03T21:19:46.439Z,9.48
2019-05-03T21:22:31.242Z,9.45
2019-05-03T21:25:27.579Z,9.45
2019-05-03T21:27:59.012Z,9.46
2019-05-03T21:30:32.716Z,9.50
2019-05-03T21:33:05.511Z,9.50
2019-05-03T21:35:41.546Z,9.50
2019-05-03T21:38:10.033Z,9.51
2019-05-03T21:40:41.452Z,9.53
2019-05-03T21:43:12.881Z,9.54
2019-05-03T21:45:49.197Z,9.56
2019-05-03T21:48:27.509Z,9.57
2019-05-03T21:50:58.802Z,9.59
2019-05-03T21:53:30.166Z,9.60
2019-05-03T21:56:03.166Z,9.60
2019-05-03T21:58:35.293Z,9.63
2019-05-03T22:01:09.116Z,9.65
2019-05-03T22:03:40.611Z,9.65
2019-05-03T22:06:11.980Z,9.66
2019-05-03T22:08:45.338Z,9.68
2019-05-03T22:11:16.436Z,9.70
2019-05-03T22:13:49.414Z,9.70
2019-05-03T22:16:39.728Z,9.71
2019-05-03T22:19:11.268Z,9.73
2019-05-03T22:22:01.506Z,9.73
2019-05-03T22:24:42.062Z,9.72
2019-05-03T22:27:17.236Z,9.74
2019-05-03T22:29:48.518Z,9.77
2019-05-03T22:32:21.170Z,9.77
2019-05-03T22:34:52.444Z,9.79
2019-05-03T22:37:25.248Z,9.81
2019-05-03T22:39:56.646Z,9.83
2019-05-03T22:42:27.980Z,9.83
2019-05-03T22:44:59.355Z,9.85
2019-05-03T22:47:30.694Z,9.85
2019-05-03T22:50:02.090Z,9.85
2019-05-03T22:52:34.969Z,9.81
2019-05-03T22:55:07.216Z,9.81
2019-05-03T22:57:38.583Z,9.85
2019-05-03T23:00:10.178Z,9.85
2019-05-03T23:02:41.562Z,9.85
2019-05-03T23:05:12.861Z,9.86
2019-05-03T23:07:46.906Z,9.85
2019-05-03T23:10:17.560Z,9.85
2019-05-03T23:12:50.616Z,9.81
2019-05-03T23:15:22.031Z,9.85
2019-05-03T23:17:54.568Z,9.84
2019-05-03T23:20:57.071Z,9.84
2019-05-03T23:23:46.002Z,9.82
2019-05-03T23:26:17.709Z,9.82
2019-05-03T23:28:49.038Z,9.83
2019-05-03T23:31:20.389Z,9.83
2019-05-03T23:33:51.735Z,9.82
2019-05-03T23:36:32.810Z,9.82
2019-05-03T23:38:55.995Z,9.79
2019-05-03T23:41:27.336Z,9.78
2019-05-03T23:43:58.689Z,9.76
2019-05-03T23:46:35.782Z,9.74
2019-05-03T23:49:07.262Z,9.74
2019-05-03T23:51:52.125Z,9.73
2019-05-03T23:54:25.108Z,9.71
2019-05-03T23:56:56.621Z,9.68
2019-05-03T23:59:27.966Z,9.68
